sensor_id;sensor_type;location;lat;lon;timestamp;temperature;humidity
33093;DHT22;19456;46.104;12.908;2023-11-19T00:02:21;5.90;99.90
33093;DHT22;19456;46.104;12.908;2023-11-19T00:04:47;5.90;99.90
33093;DHT22;19456;46.104;12.908;2023-11-19T00:07:13;5.90;99.90
33093;DHT22;19456;46.104;12.908;2023-11-19T00:09:39;5.80;99.90
33093;DHT22;19456;46.104;12.908;2023-11-19T00:12:05;5.70;99.90
33093;DHT22;19456;46.104;12.908;2023-11-19T00:14:31;5.70;99.90
33093;DHT22;19456;46.104;12.908;2023-11-19T00:16:57;5.80;99.90
33093;DHT22;19456;46.104;12.908;2023-11-19T00:19:22;6.00;99.90
33093;DHT22;19456;46.104;12.908;2023-11-19T00:21:48;6.00;99.90
33093;DHT22;19456;46.104;12.908;2023-11-19T00:24:14;6.00;99.90
33093;DHT22;19456;46.104;12.908;2023-11-19T00:26:42;6.00;99.90
33093;DHT22;19456;46.104;12.908;2023-11-19T00:29:07;6.20;99.90
33093;DHT22;19456;46.104;12.908;2023-11-19T00:31:33;6.20;99.90
33093;DHT22;19456;46.104;12.908;2023-11-19T00:33:59;6.30;99.90
33093;DHT22;19456;46.104;12.908;2023-11-19T00:36:24;6.00;99.90
33093;DHT22;19456;46.104;12.908;2023-11-19T00:38:50;5.80;99.90
33093;DHT22;19456;46.104;12.908;2023-11-19T00:41:18;5.70;99.90
33093;DHT22;19456;46.104;12.908;2023-11-19T00:43:43;5.50;99.90
33093;DHT22;19456;46.104;12.908;2023-11-19T00:46:09;5.30;99.90
33093;DHT22;19456;46.104;12.908;2023-11-19T00:48:36;5.20;99.90
33093;DHT22;19456;46.104;12.908;2023-11-19T00:51:02;5.10;99.90
33093;DHT22;19456;46.104;12.908;2023-11-19T00:53:28;4.90;99.90
33093;DHT22;19456;46.104;12.908;2023-11-19T00:55:54;5.00;99.90
33093;DHT22;19456;46.104;12.908;2023-11-19T00:58:20;4.90;99.90
33093;DHT22;19456;46.104;12.908;2023-11-19T01:00:45;5.00;99.90
33093;DHT22;19456;46.104;12.908;2023-11-19T01:03:11;4.90;99.90
33093;DHT22;19456;46.104;12.908;2023-11-19T01:05:37;5.00;99.90
33093;DHT22;19456;46.104;12.908;2023-11-19T01:08:02;5.00;99.90
33093;DHT22;19456;46.104;12.908;2023-11-19T01:10:30;4.70;99.90
33093;DHT22;19456;46.104;12.908;2023-11-19T01:12:55;4.60;99.90
33093;DHT22;19456;46.104;12.908;2023-11-19T01:15:21;4.50;99.90
33093;DHT22;19456;46.104;12.908;2023-11-19T01:17:46;4.50;99.90
33093;DHT22;19456;46.104;12.908;2023-11-19T01:20:12;4.80;99.90
33093;DHT22;19456;46.104;12.908;2023-11-19T01:22:38;4.80;99.90
33093;DHT22;19456;46.104;12.908;2023-11-19T01:25:04;4.90;99.90
33093;DHT22;19456;46.104;12.908;2023-11-19T01:27:30;4.80;99.90
33093;DHT22;19456;46.104;12.908;2023-11-19T01:29:56;4.80;99.90
33093;DHT22;19456;46.104;12.908;2023-11-19T01:32:22;4.70;99.90
33093;DHT22;19456;46.104;12.908;2023-11-19T01:34:49;4.60;99.90
33093;DHT22;19456;46.104;12.908;2023-11-19T01:37:15;4.70;99.90
33093;DHT22;19456;46.104;12.908;2023-11-19T01:39:43;5.00;99.90
33093;DHT22;19456;46.104;12.908;2023-11-19T01:42:09;5.20;99.90
33093;DHT22;19456;46.104;12.908;2023-11-19T01:44:34;5.30;99.90
33093;DHT22;19456;46.104;12.908;2023-11-19T01:47:00;5.30;99.90
33093;DHT22;19456;46.104;12.908;2023-11-19T01:49:26;5.30;99.90
33093;DHT22;19456;46.104;12.908;2023-11-19T01:51:51;5.20;99.90
33093;DHT22;19456;46.104;12.908;2023-11-19T01:54:17;5.20;99.90
33093;DHT22;19456;46.104;12.908;2023-11-19T01:56:43;5.30;99.90
33093;DHT22;19456;46.104;12.908;2023-11-19T01:59:09;5.30;99.90
33093;DHT22;19456;46.104;12.908;2023-11-19T02:01:36;5.30;99.90
33093;DHT22;19456;46.104;12.908;2023-11-19T02:04:05;5.30;99.90
33093;DHT22;19456;46.104;12.908;2023-11-19T02:06:31;5.30;99.90
33093;DHT22;19456;46.104;12.908;2023-11-19T02:08:58;5.30;99.90
33093;DHT22;19456;46.104;12.908;2023-11-19T02:11:23;5.30;99.90
33093;DHT22;19456;46.104;12.908;2023-11-19T02:13:55;5.30;99.90
33093;DHT22;19456;46.104;12.908;2023-11-19T02:16:21;5.30;99.90
33093;DHT22;19456;46.104;12.908;2023-11-19T02:18:46;5.30;99.90
33093;DHT22;19456;46.104;12.908;2023-11-19T02:21:12;5.30;99.90
33093;DHT22;19456;46.104;12.908;2023-11-19T02:23:40;5.40;99.90
33093;DHT22;19456;46.104;12.908;2023-11-19T02:28:43;5.30;99.90
33093;DHT22;19456;46.104;12.908;2023-11-19T02:31:09;5.20;99.90
33093;DHT22;19456;46.104;12.908;2023-11-19T02:33:36;5.20;99.90
33093;DHT22;19456;46.104;12.908;2023-11-19T02:36:02;5.30;99.90
33093;DHT22;19456;46.104;12.908;2023-11-19T02:38:29;5.30;99.90
33093;DHT22;19456;46.104;12.908;2023-11-19T02:40:56;5.30;99.90
33093;DHT22;19456;46.104;12.908;2023-11-19T02:43:22;5.20;99.90
33093;DHT22;19456;46.104;12.908;2023-11-19T02:45:48;5.20;99.90
33093;DHT22;19456;46.104;12.908;2023-11-19T02:48:14;5.20;99.90
33093;DHT22;19456;46.104;12.908;2023-11-19T02:50:41;5.30;99.90
33093;DHT22;19456;46.104;12.908;2023-11-19T02:53:07;5.30;99.90
33093;DHT22;19456;46.104;12.908;2023-11-19T02:55:35;5.30;99.90
33093;DHT22;19456;46.104;12.908;2023-11-19T02:58:03;5.30;99.90
33093;DHT22;19456;46.104;12.908;2023-11-19T03:00:34;5.30;99.90
33093;DHT22;19456;46.104;12.908;2023-11-19T03:03:08;5.40;99.90
33093;DHT22;19456;46.104;12.908;2023-11-19T03:05:56;5.50;99.90
33093;DHT22;19456;46.104;12.908;2023-11-19T03:08:22;5.50;99.90
33093;DHT22;19456;46.104;12.908;2023-11-19T03:10:48;5.50;99.90
33093;DHT22;19456;46.104;12.908;2023-11-19T03:13:14;5.50;99.90
33093;DHT22;19456;46.104;12.908;2023-11-19T03:15:40;5.50;99.90
33093;DHT22;19456;46.104;12.908;2023-11-19T03:18:06;5.50;99.90
33093;DHT22;19456;46.104;12.908;2023-11-19T03:20:31;5.50;99.90
33093;DHT22;19456;46.104;12.908;2023-11-19T03:22:57;5.40;99.90
33093;DHT22;19456;46.104;12.908;2023-11-19T03:25:27;5.40;99.90
33093;DHT22;19456;46.104;12.908;2023-11-19T03:27:58;5.50;99.90
33093;DHT22;19456;46.104;12.908;2023-11-19T03:30:24;5.50;99.90
33093;DHT22;19456;46.104;12.908;2023-11-19T03:32:50;5.50;99.90
33093;DHT22;19456;46.104;12.908;2023-11-19T03:35:15;5.40;99.90
33093;DHT22;19456;46.104;12.908;2023-11-19T03:37:41;5.30;99.90
33093;DHT22;19456;46.104;12.908;2023-11-19T03:40:07;5.30;99.90
33093;DHT22;19456;46.104;12.908;2023-11-19T03:42:32;5.30;99.90
33093;DHT22;19456;46.104;12.908;2023-11-19T03:44:58;5.30;99.90
33093;DHT22;19456;46.104;12.908;2023-11-19T03:47:24;5.30;99.90
33093;DHT22;19456;46.104;12.908;2023-11-19T03:49:50;5.30;99.90
33093;DHT22;19456;46.104;12.908;2023-11-19T03:52:16;5.30;99.90
33093;DHT22;19456;46.104;12.908;2023-11-19T03:54:42;5.30;99.90
33093;DHT22;19456;46.104;12.908;2023-11-19T03:57:07;5.40;99.90
33093;DHT22;19456;46.104;12.908;2023-11-19T03:59:33;5.40;99.90
33093;DHT22;19456;46.104;12.908;2023-11-19T04:01:59;5.30;99.90
33093;DHT22;19456;46.104;12.908;2023-11-19T04:04:26;5.30;99.90
33093;DHT22;19456;46.104;12.908;2023-11-19T04:06:53;5.20;99.90
33093;DHT22;19456;46.104;12.908;2023-11-19T04:09:18;5.20;99.90
33093;DHT22;19456;46.104;12.908;2023-11-19T04:12:00;5.20;99.90
33093;DHT22;19456;46.104;12.908;2023-11-19T04:14:36;5.10;99.90
33093;DHT22;19456;46.104;12.908;2023-11-19T04:17:04;5.10;99.90
33093;DHT22;19456;46.104;12.908;2023-11-19T04:19:30;5.10;99.90
33093;DHT22;19456;46.104;12.908;2023-11-19T04:21:58;5.20;99.90
33093;DHT22;19456;46.104;12.908;2023-11-19T04:24:26;5.20;99.90
33093;DHT22;19456;46.104;12.908;2023-11-19T04:26:55;5.30;99.90
33093;DHT22;19456;46.104;12.908;2023-11-19T04:29:20;5.40;99.90
33093;DHT22;19456;46.104;12.908;2023-11-19T04:31:46;5.50;99.90
33093;DHT22;19456;46.104;12.908;2023-11-19T04:34:12;5.50;99.90
33093;DHT22;19456;46.104;12.908;2023-11-19T04:36:38;5.70;99.90
33093;DHT22;19456;46.104;12.908;2023-11-19T04:42:06;5.70;99.90
33093;DHT22;19456;46.104;12.908;2023-11-19T04:44:32;5.80;99.90
33093;DHT22;19456;46.104;12.908;2023-11-19T04:47:19;5.80;99.90
33093;DHT22;19456;46.104;12.908;2023-11-19T04:49:49;5.70;99.90
33093;DHT22;19456;46.104;12.908;2023-11-19T04:52:18;5.80;99.90
33093;DHT22;19456;46.104;12.908;2023-11-19T04:54:44;5.80;99.90
33093;DHT22;19456;46.104;12.908;2023-11-19T04:57:10;5.80;99.90
33093;DHT22;19456;46.104;12.908;2023-11-19T04:59:54;5.90;99.90
33093;DHT22;19456;46.104;12.908;2023-11-19T05:02:20;5.90;99.90
33093;DHT22;19456;46.104;12.908;2023-11-19T05:04:46;5.90;99.90
33093;DHT22;19456;46.104;12.908;2023-11-19T05:07:12;5.90;99.90
33093;DHT22;19456;46.104;12.908;2023-11-19T05:09:38;5.90;99.90
33093;DHT22;19456;46.104;12.908;2023-11-19T05:12:03;6.00;99.90
33093;DHT22;19456;46.104;12.908;2023-11-19T05:14:29;5.90;99.90
33093;DHT22;19456;46.104;12.908;2023-11-19T05:16:55;5.80;99.90
33093;DHT22;19456;46.104;12.908;2023-11-19T05:19:20;5.80;99.90
33093;DHT22;19456;46.104;12.908;2023-11-19T05:21:46;5.70;99.90
33093;DHT22;19456;46.104;12.908;2023-11-19T05:24:12;5.70;99.90
33093;DHT22;19456;46.104;12.908;2023-11-19T05:26:56;5.80;99.90
33093;DHT22;19456;46.104;12.908;2023-11-19T05:29:23;5.80;99.90
33093;DHT22;19456;46.104;12.908;2023-11-19T05:34:49;5.80;99.90
33093;DHT22;19456;46.104;12.908;2023-11-19T05:37:15;5.80;99.90
33093;DHT22;19456;46.104;12.908;2023-11-19T05:39:44;5.70;99.90
33093;DHT22;19456;46.104;12.908;2023-11-19T05:42:18;5.70;99.90
33093;DHT22;19456;46.104;12.908;2023-11-19T05:47:39;5.50;99.90
33093;DHT22;19456;46.104;12.908;2023-11-19T05:55:59;5.40;99.90
33093;DHT22;19456;46.104;12.908;2023-11-19T05:58:29;5.40;99.90
33093;DHT22;19456;46.104;12.908;2023-11-19T06:00:55;5.40;99.90
33093;DHT22;19456;46.104;12.908;2023-11-19T06:03:21;5.50;99.90
33093;DHT22;19456;46.104;12.908;2023-11-19T06:05:47;5.50;99.90
33093;DHT22;19456;46.104;12.908;2023-11-19T06:08:13;5.50;99.90
33093;DHT22;19456;46.104;12.908;2023-11-19T06:10:43;5.40;99.90
33093;DHT22;19456;46.104;12.908;2023-11-19T06:13:08;5.40;99.90
33093;DHT22;19456;46.104;12.908;2023-11-19T06:15:36;5.30;99.90
33093;DHT22;19456;46.104;12.908;2023-11-19T06:18:02;5.30;99.90
33093;DHT22;19456;46.104;12.908;2023-11-19T06:20:29;5.20;99.90
33093;DHT22;19456;46.104;12.908;2023-11-19T06:22:55;5.20;99.90
33093;DHT22;19456;46.104;12.908;2023-11-19T06:25:21;5.20;99.90
33093;DHT22;19456;46.104;12.908;2023-11-19T06:27:46;5.30;99.90
33093;DHT22;19456;46.104;12.908;2023-11-19T06:30:12;5.30;99.90
33093;DHT22;19456;46.104;12.908;2023-11-19T06:32:38;5.30;99.90
33093;DHT22;19456;46.104;12.908;2023-11-19T06:35:03;5.30;99.90
33093;DHT22;19456;46.104;12.908;2023-11-19T06:37:32;5.30;99.90
33093;DHT22;19456;46.104;12.908;2023-11-19T06:39:58;5.40;99.90
33093;DHT22;19456;46.104;12.908;2023-11-19T06:42:23;5.50;99.90
33093;DHT22;19456;46.104;12.908;2023-11-19T06:44:49;5.50;99.90
33093;DHT22;19456;46.104;12.908;2023-11-19T06:47:14;5.50;99.90
33093;DHT22;19456;46.104;12.908;2023-11-19T06:49:43;5.50;99.90
33093;DHT22;19456;46.104;12.908;2023-11-19T06:52:17;5.50;99.90
33093;DHT22;19456;46.104;12.908;2023-11-19T06:54:43;5.60;99.90
33093;DHT22;19456;46.104;12.908;2023-11-19T06:57:11;5.60;99.90
33093;DHT22;19456;46.104;12.908;2023-11-19T06:59:37;5.70;99.90
33093;DHT22;19456;46.104;12.908;2023-11-19T07:02:02;5.80;99.90
33093;DHT22;19456;46.104;12.908;2023-11-19T07:04:28;5.90;99.90
33093;DHT22;19456;46.104;12.908;2023-11-19T07:06:53;6.00;99.90
33093;DHT22;19456;46.104;12.908;2023-11-19T07:09:19;6.10;99.90
33093;DHT22;19456;46.104;12.908;2023-11-19T07:11:46;6.20;99.90
33093;DHT22;19456;46.104;12.908;2023-11-19T07:14:12;6.30;99.90
33093;DHT22;19456;46.104;12.908;2023-11-19T07:16:37;6.30;99.90
33093;DHT22;19456;46.104;12.908;2023-11-19T07:19:04;6.40;99.90
33093;DHT22;19456;46.104;12.908;2023-11-19T07:21:30;6.50;99.90
33093;DHT22;19456;46.104;12.908;2023-11-19T07:23:56;6.60;99.90
33093;DHT22;19456;46.104;12.908;2023-11-19T07:26:22;6.70;99.90
33093;DHT22;19456;46.104;12.908;2023-11-19T07:28:48;6.80;99.90
33093;DHT22;19456;46.104;12.908;2023-11-19T07:31:17;6.80;99.90
33093;DHT22;19456;46.104;12.908;2023-11-19T07:33:45;6.90;99.90
33093;DHT22;19456;46.104;12.908;2023-11-19T07:36:11;7.00;99.90
33093;DHT22;19456;46.104;12.908;2023-11-19T07:38:37;7.10;99.90
33093;DHT22;19456;46.104;12.908;2023-11-19T07:41:04;7.20;99.90
33093;DHT22;19456;46.104;12.908;2023-11-19T07:43:30;7.40;99.90
33093;DHT22;19456;46.104;12.908;2023-11-19T07:45:56;7.50;99.90
33093;DHT22;19456;46.104;12.908;2023-11-19T07:48:24;7.70;99.90
33093;DHT22;19456;46.104;12.908;2023-11-19T07:50:50;7.80;99.90
33093;DHT22;19456;46.104;12.908;2023-11-19T07:53:16;7.90;99.90
33093;DHT22;19456;46.104;12.908;2023-11-19T07:55:42;8.00;99.90
33093;DHT22;19456;46.104;12.908;2023-11-19T07:58:07;8.10;99.90
33093;DHT22;19456;46.104;12.908;2023-11-19T08:00:33;8.20;99.90
33093;DHT22;19456;46.104;12.908;2023-11-19T08:02:58;8.30;99.90
33093;DHT22;19456;46.104;12.908;2023-11-19T08:05:24;8.40;99.90
33093;DHT22;19456;46.104;12.908;2023-11-19T08:07:52;8.50;99.90
33093;DHT22;19456;46.104;12.908;2023-11-19T08:10:21;8.60;99.90
33093;DHT22;19456;46.104;12.908;2023-11-19T08:12:48;8.70;99.90
33093;DHT22;19456;46.104;12.908;2023-11-19T08:15:13;8.70;99.90
33093;DHT22;19456;46.104;12.908;2023-11-19T08:17:39;8.80;99.90
33093;DHT22;19456;46.104;12.908;2023-11-19T08:20:08;8.90;99.90
33093;DHT22;19456;46.104;12.908;2023-11-19T08:22:38;8.90;99.90
33093;DHT22;19456;46.104;12.908;2023-11-19T08:25:04;9.00;99.90
33093;DHT22;19456;46.104;12.908;2023-11-19T08:27:33;9.00;99.90
33093;DHT22;19456;46.104;12.908;2023-11-19T08:29:59;9.20;99.90
33093;DHT22;19456;46.104;12.908;2023-11-19T08:32:28;9.30;99.90
33093;DHT22;19456;46.104;12.908;2023-11-19T08:35:11;9.50;99.90
33093;DHT22;19456;46.104;12.908;2023-11-19T08:37:36;9.70;99.90
33093;DHT22;19456;46.104;12.908;2023-11-19T08:40:03;9.70;99.90
33093;DHT22;19456;46.104;12.908;2023-11-19T08:42:30;9.80;99.90
33093;DHT22;19456;46.104;12.908;2023-11-19T08:44:55;9.80;99.90
33093;DHT22;19456;46.104;12.908;2023-11-19T08:47:21;9.80;99.90
33093;DHT22;19456;46.104;12.908;2023-11-19T08:49:50;9.80;99.90
33093;DHT22;19456;46.104;12.908;2023-11-19T08:52:23;10.00;99.90
33093;DHT22;19456;46.104;12.908;2023-11-19T08:54:54;10.10;99.90
33093;DHT22;19456;46.104;12.908;2023-11-19T09:00:25;10.40;99.90
33093;DHT22;19456;46.104;12.908;2023-11-19T09:02:51;10.50;99.90
33093;DHT22;19456;46.104;12.908;2023-11-19T09:08:14;10.70;99.90
33093;DHT22;19456;46.104;12.908;2023-11-19T09:10:40;10.80;99.90
33093;DHT22;19456;46.104;12.908;2023-11-19T09:13:06;10.90;99.90
33093;DHT22;19456;46.104;12.908;2023-11-19T09:15:31;10.80;99.90
33093;DHT22;19456;46.104;12.908;2023-11-19T09:17:57;10.80;99.90
33093;DHT22;19456;46.104;12.908;2023-11-19T09:20:22;10.80;99.90
33093;DHT22;19456;46.104;12.908;2023-11-19T09:22:48;10.80;99.90
33093;DHT22;19456;46.104;12.908;2023-11-19T09:25:25;10.90;99.90
33093;DHT22;19456;46.104;12.908;2023-11-19T09:27:51;10.90;99.90
33093;DHT22;19456;46.104;12.908;2023-11-19T09:30:19;11.00;99.90
33093;DHT22;19456;46.104;12.908;2023-11-19T09:32:47;11.00;99.90
33093;DHT22;19456;46.104;12.908;2023-11-19T09:35:12;11.10;99.90
33093;DHT22;19456;46.104;12.908;2023-11-19T09:40:52;11.30;99.90
33093;DHT22;19456;46.104;12.908;2023-11-19T09:43:17;11.50;99.90
33093;DHT22;19456;46.104;12.908;2023-11-19T09:45:58;11.50;99.90
33093;DHT22;19456;46.104;12.908;2023-11-19T09:48:30;11.60;99.90
33093;DHT22;19456;46.104;12.908;2023-11-19T09:50:56;11.40;99.90
33093;DHT22;19456;46.104;12.908;2023-11-19T09:53:23;11.30;99.90
33093;DHT22;19456;46.104;12.908;2023-11-19T09:55:49;11.50;99.90
33093;DHT22;19456;46.104;12.908;2023-11-19T09:58:15;11.70;99.90
33093;DHT22;19456;46.104;12.908;2023-11-19T10:00:42;11.80;99.90
33093;DHT22;19456;46.104;12.908;2023-11-19T10:03:11;11.90;99.90
33093;DHT22;19456;46.104;12.908;2023-11-19T10:05:44;12.00;99.90
33093;DHT22;19456;46.104;12.908;2023-11-19T10:08:10;12.20;99.90
33093;DHT22;19456;46.104;12.908;2023-11-19T10:10:39;12.40;99.90
33093;DHT22;19456;46.104;12.908;2023-11-19T10:13:05;12.50;99.90
33093;DHT22;19456;46.104;12.908;2023-11-19T10:15:33;12.70;99.90
33093;DHT22;19456;46.104;12.908;2023-11-19T10:18:01;12.50;99.90
33093;DHT22;19456;46.104;12.908;2023-11-19T10:20:26;12.50;99.90
33093;DHT22;19456;46.104;12.908;2023-11-19T10:22:55;12.40;99.90
33093;DHT22;19456;46.104;12.908;2023-11-19T10:25:30;12.30;99.90
33093;DHT22;19456;46.104;12.908;2023-11-19T10:27:56;12.30;99.90
33093;DHT22;19456;46.104;12.908;2023-11-19T10:33:28;12.00;99.90
33093;DHT22;19456;46.104;12.908;2023-11-19T10:35:55;12.00;99.90
33093;DHT22;19456;46.104;12.908;2023-11-19T10:38:33;12.10;99.90
33093;DHT22;19456;46.104;12.908;2023-11-19T10:41:17;12.10;99.90
33093;DHT22;19456;46.104;12.908;2023-11-19T10:43:51;12.50;99.90
33093;DHT22;19456;46.104;12.908;2023-11-19T10:46:17;12.90;99.90
33093;DHT22;19456;46.104;12.908;2023-11-19T10:51:58;13.40;99.90
33093;DHT22;19456;46.104;12.908;2023-11-19T10:54:33;13.80;99.90
33093;DHT22;19456;46.104;12.908;2023-11-19T10:56:59;14.50;99.90
33093;DHT22;19456;46.104;12.908;2023-11-19T10:59:28;15.00;99.90
33093;DHT22;19456;46.104;12.908;2023-11-19T11:01:55;15.40;99.90
33093;DHT22;19456;46.104;12.908;2023-11-19T11:12:59;16.70;99.20
33093;DHT22;19456;46.104;12.908;2023-11-19T11:21:31;17.80;95.10
33093;DHT22;19456;46.104;12.908;2023-11-19T11:36:28;20.10;79.10
33093;DHT22;19456;46.104;12.908;2023-11-19T11:39:35;20.50;77.60
33093;DHT22;19456;46.104;12.908;2023-11-19T11:45:08;19.90;72.50
33093;DHT22;19456;46.104;12.908;2023-11-19T11:58:08;20.80;64.40
33093;DHT22;19456;46.104;12.908;2023-11-19T12:04:04;21.20;66.40
33093;DHT22;19456;46.104;12.908;2023-11-19T12:06:32;22.10;65.30
33093;DHT22;19456;46.104;12.908;2023-11-19T12:09:01;22.60;62.10
33093;DHT22;19456;46.104;12.908;2023-11-19T12:11:28;22.80;61.10
33093;DHT22;19456;46.104;12.908;2023-11-19T12:20:41;21.60;61.20
33093;DHT22;19456;46.104;12.908;2023-11-19T12:23:07;22.70;60.20
33093;DHT22;19456;46.104;12.908;2023-11-19T12:25:34;23.40;59.30
33093;DHT22;19456;46.104;12.908;2023-11-19T12:28:01;23.60;57.10
33093;DHT22;19456;46.104;12.908;2023-11-19T12:30:32;23.10;56.80
33093;DHT22;19456;46.104;12.908;2023-11-19T12:33:12;22.40;58.10
33093;DHT22;19456;46.104;12.908;2023-11-19T12:35:41;22.70;59.40
33093;DHT22;19456;46.104;12.908;2023-11-19T12:38:08;23.90;57.70
33093;DHT22;19456;46.104;12.908;2023-11-19T12:40:34;24.40;56.60
33093;DHT22;19456;46.104;12.908;2023-11-19T12:46:03;25.50;54.00
33093;DHT22;19456;46.104;12.908;2023-11-19T12:48:29;24.60;53.30
33093;DHT22;19456;46.104;12.908;2023-11-19T12:51:03;25.10;53.40
33093;DHT22;19456;46.104;12.908;2023-11-19T12:53:29;25.00;53.50
33093;DHT22;19456;46.104;12.908;2023-11-19T12:56:20;24.70;54.80
33093;DHT22;19456;46.104;12.908;2023-11-19T13:04:19;24.10;55.90
33093;DHT22;19456;46.104;12.908;2023-11-19T13:09:40;24.80;53.50
33093;DHT22;19456;46.104;12.908;2023-11-19T13:12:17;25.30;52.30
33093;DHT22;19456;46.104;12.908;2023-11-19T13:17:32;25.70;51.60
33093;DHT22;19456;46.104;12.908;2023-11-19T13:19:57;26.10;51.40
33093;DHT22;19456;46.104;12.908;2023-11-19T13:22:23;25.30;49.90
33093;DHT22;19456;46.104;12.908;2023-11-19T13:24:48;24.60;50.60
33093;DHT22;19456;46.104;12.908;2023-11-19T13:33:09;25.60;51.20
33093;DHT22;19456;46.104;12.908;2023-11-19T13:35:38;25.30;51.30
33093;DHT22;19456;46.104;12.908;2023-11-19T13:38:21;25.20;52.00
33093;DHT22;19456;46.104;12.908;2023-11-19T13:40:50;24.90;53.40
33093;DHT22;19456;46.104;12.908;2023-11-19T13:43:19;24.30;52.00
33093;DHT22;19456;46.104;12.908;2023-11-19T13:45:47;25.10;51.90
33093;DHT22;19456;46.104;12.908;2023-11-19T13:48:13;25.10;52.10
33093;DHT22;19456;46.104;12.908;2023-11-19T13:50:39;25.00;50.20
33093;DHT22;19456;46.104;12.908;2023-11-19T13:53:12;25.00;50.50
33093;DHT22;19456;46.104;12.908;2023-11-19T13:55:38;24.90;51.50
33093;DHT22;19456;46.104;12.908;2023-11-19T13:58:03;24.90;51.90
33093;DHT22;19456;46.104;12.908;2023-11-19T14:00:29;23.30;52.00
33093;DHT22;19456;46.104;12.908;2023-11-19T14:02:54;21.90;56.10
33093;DHT22;19456;46.104;12.908;2023-11-19T14:08:37;19.90;60.60
33093;DHT22;19456;46.104;12.908;2023-11-19T14:11:03;18.90;60.70
33093;DHT22;19456;46.104;12.908;2023-11-19T14:13:28;18.70;64.60
33093;DHT22;19456;46.104;12.908;2023-11-19T14:15:54;17.90;66.90
33093;DHT22;19456;46.104;12.908;2023-11-19T14:18:20;17.40;68.00
33093;DHT22;19456;46.104;12.908;2023-11-19T14:20:45;16.80;69.00
33093;DHT22;19456;46.104;12.908;2023-11-19T14:23:11;16.30;68.50
33093;DHT22;19456;46.104;12.908;2023-11-19T14:25:37;15.70;74.60
33093;DHT22;19456;46.104;12.908;2023-11-19T14:28:17;15.20;76.90
33093;DHT22;19456;46.104;12.908;2023-11-19T14:30:59;14.70;78.60
33093;DHT22;19456;46.104;12.908;2023-11-19T14:33:25;14.50;81.40
33093;DHT22;19456;46.104;12.908;2023-11-19T14:36:05;14.10;85.70
33093;DHT22;19456;46.104;12.908;2023-11-19T14:41:32;13.80;89.30
33093;DHT22;19456;46.104;12.908;2023-11-19T14:43:58;13.50;90.20
33093;DHT22;19456;46.104;12.908;2023-11-19T14:46:44;13.50;90.20
33093;DHT22;19456;46.104;12.908;2023-11-19T14:49:12;13.50;90.90
33093;DHT22;19456;46.104;12.908;2023-11-19T14:54:46;13.30;91.50
33093;DHT22;19456;46.104;12.908;2023-11-19T14:57:12;13.20;91.10
33093;DHT22;19456;46.104;12.908;2023-11-19T14:59:38;13.10;91.80
33093;DHT22;19456;46.104;12.908;2023-11-19T15:02:04;13.00;91.50
33093;DHT22;19456;46.104;12.908;2023-11-19T15:04:44;13.00;91.80
33093;DHT22;19456;46.104;12.908;2023-11-19T15:09:55;12.80;93.00
33093;DHT22;19456;46.104;12.908;2023-11-19T15:12:31;12.60;96.10
33093;DHT22;19456;46.104;12.908;2023-11-19T15:15:09;12.40;96.50
33093;DHT22;19456;46.104;12.908;2023-11-19T15:17:35;12.30;97.60
33093;DHT22;19456;46.104;12.908;2023-11-19T15:20:02;12.30;99.90
33093;DHT22;19456;46.104;12.908;2023-11-19T15:22:28;12.10;99.70
33093;DHT22;19456;46.104;12.908;2023-11-19T15:27:35;12.00;99.80
33093;DHT22;19456;46.104;12.908;2023-11-19T15:30:01;11.90;99.90
33093;DHT22;19456;46.104;12.908;2023-11-19T15:32:31;11.80;99.90
33093;DHT22;19456;46.104;12.908;2023-11-19T15:40:44;11.50;99.90
33093;DHT22;19456;46.104;12.908;2023-11-19T15:43:09;11.40;99.90
33093;DHT22;19456;46.104;12.908;2023-11-19T15:45:35;11.10;99.90
33093;DHT22;19456;46.104;12.908;2023-11-19T15:48:03;11.10;99.90
33093;DHT22;19456;46.104;12.908;2023-11-19T15:53:36;10.90;99.90
33093;DHT22;19456;46.104;12.908;2023-11-19T15:59:03;10.90;99.90
33093;DHT22;19456;46.104;12.908;2023-11-19T16:01:31;10.90;99.90
33093;DHT22;19456;46.104;12.908;2023-11-19T16:03:58;11.00;99.90
33093;DHT22;19456;46.104;12.908;2023-11-19T16:06:23;11.00;99.90
33093;DHT22;19456;46.104;12.908;2023-11-19T16:08:52;11.00;99.90
33093;DHT22;19456;46.104;12.908;2023-11-19T16:11:19;10.90;99.90
33093;DHT22;19456;46.104;12.908;2023-11-19T16:13:45;10.90;99.90
33093;DHT22;19456;46.104;12.908;2023-11-19T16:16:11;10.60;99.90
33093;DHT22;19456;46.104;12.908;2023-11-19T16:18:36;10.40;99.90
33093;DHT22;19456;46.104;12.908;2023-11-19T16:21:02;10.50;99.90
33093;DHT22;19456;46.104;12.908;2023-11-19T16:23:27;10.40;99.90
33093;DHT22;19456;46.104;12.908;2023-11-19T16:25:53;10.30;99.90
33093;DHT22;19456;46.104;12.908;2023-11-19T16:31:42;10.20;99.90
33093;DHT22;19456;46.104;12.908;2023-11-19T16:34:19;10.00;99.90
33093;DHT22;19456;46.104;12.908;2023-11-19T16:36:54;9.90;99.90
33093;DHT22;19456;46.104;12.908;2023-11-19T16:39:19;9.70;99.90
33093;DHT22;19456;46.104;12.908;2023-11-19T16:41:51;9.30;99.90
33093;DHT22;19456;46.104;12.908;2023-11-19T16:44:19;9.20;99.90
33093;DHT22;19456;46.104;12.908;2023-11-19T16:46:45;9.10;99.90
33093;DHT22;19456;46.104;12.908;2023-11-19T16:49:20;9.20;99.90
33093;DHT22;19456;46.104;12.908;2023-11-19T16:51:46;9.30;99.90
33093;DHT22;19456;46.104;12.908;2023-11-19T16:54:12;9.30;99.90
33093;DHT22;19456;46.104;12.908;2023-11-19T16:56:46;9.30;99.90
33093;DHT22;19456;46.104;12.908;2023-11-19T16:59:48;9.20;99.90
33093;DHT22;19456;46.104;12.908;2023-11-19T17:02:23;8.90;99.90
33093;DHT22;19456;46.104;12.908;2023-11-19T17:07:30;8.60;99.90
33093;DHT22;19456;46.104;12.908;2023-11-19T17:09:56;8.60;99.90
33093;DHT22;19456;46.104;12.908;2023-11-19T17:15:21;8.70;99.90
33093;DHT22;19456;46.104;12.908;2023-11-19T17:17:47;8.80;99.90
33093;DHT22;19456;46.104;12.908;2023-11-19T17:20:12;8.70;99.90
33093;DHT22;19456;46.104;12.908;2023-11-19T17:22:51;8.60;99.90
33093;DHT22;19456;46.104;12.908;2023-11-19T17:25:34;8.70;99.90
33093;DHT22;19456;46.104;12.908;2023-11-19T17:28:18;8.70;99.90
33093;DHT22;19456;46.104;12.908;2023-11-19T17:30:44;8.40;99.90
33093;DHT22;19456;46.104;12.908;2023-11-19T17:33:28;8.20;99.90
33093;DHT22;19456;46.104;12.908;2023-11-19T17:36:17;8.20;99.90
33093;DHT22;19456;46.104;12.908;2023-11-19T17:38:59;8.10;99.90
33093;DHT22;19456;46.104;12.908;2023-11-19T17:41:25;8.00;99.90
33093;DHT22;19456;46.104;12.908;2023-11-19T17:43:52;7.90;99.90
33093;DHT22;19456;46.104;12.908;2023-11-19T17:46:34;7.60;99.90
33093;DHT22;19456;46.104;12.908;2023-11-19T17:49:00;7.50;99.90
33093;DHT22;19456;46.104;12.908;2023-11-19T17:51:25;7.60;99.90